createdAt,value
2022-09-07T00:02:20.603Z,5.13
2022-09-07T00:04:47.042Z,6.53
2022-09-07T00:07:13.808Z,8.65
2022-09-07T00:09:40.238Z,7.75
2022-09-07T00:12:06.820Z,10.32
2022-09-07T00:14:34.538Z,7.07
2022-09-07T00:17:00.982Z,7.20
2022-09-07T00:19:27.433Z,8.00
2022-09-07T00:21:53.884Z,7.22
2022-09-07T00:24:20.361Z,7.78
2022-09-07T00:26:46.827Z,9.88
2022-09-07T00:29:13.271Z,10.90
2022-09-07T00:31:39.873Z,9.27
2022-09-07T00:34:06.582Z,8.82
2022-09-07T00:36:33.039Z,6.53
2022-09-07T00:38:59.566Z,7.93
2022-09-07T00:41:26.062Z,7.72
2022-09-07T00:43:55.897Z,9.20
2022-09-07T00:46:23.897Z,10.63
2022-09-07T00:49:10.634Z,9.55
2022-09-07T00:51:46.283Z,8.23
2022-09-07T00:54:18.873Z,12.95
2022-09-07T00:56:47.081Z,9.15
2022-09-07T00:59:16.600Z,11.95
2022-09-07T01:01:45.131Z,8.50
2022-09-07T01:04:12.016Z,12.80
2022-09-07T01:06:40.003Z,11.98
2022-09-07T01:09:14.242Z,8.10
2022-09-07T01:11:43.678Z,9.32
2022-09-07T01:14:14.961Z,12.57
2022-09-07T01:17:14.710Z,9.30
2022-09-07T01:20:02.986Z,10.70
2022-09-07T01:22:52.741Z,15.73
2022-09-07T01:25:41.227Z,10.65
2022-09-07T01:28:18.983Z,12.52
2022-09-07T01:30:55.744Z,8.77
2022-09-07T01:33:44.372Z,11.85
2022-09-07T01:36:20.231Z,7.90
2022-09-07T01:38:58.893Z,9.07
2022-09-07T01:41:42.690Z,12.45
2022-09-07T01:44:18.694Z,11.45
2022-09-07T01:47:07.721Z,10.23
2022-09-07T01:49:50.155Z,11.02
2022-09-07T01:52:32.064Z,10.45
2022-09-07T01:55:11.329Z,9.32
2022-09-07T01:57:45.956Z,10.75
2022-09-07T02:00:18.274Z,8.55
2022-09-07T02:03:08.664Z,9.67
2022-09-07T02:05:54.677Z,7.93
2022-09-07T02:08:32.469Z,8.38
2022-09-07T02:11:07.229Z,10.55
2022-09-07T02:13:50.922Z,10.02
2022-09-07T02:16:26.768Z,8.18
2022-09-07T02:18:56.450Z,14.38
2022-09-07T02:21:30.972Z,13.98
2022-09-07T02:24:06.211Z,8.65
2022-09-07T02:26:36.672Z,12.77
2022-09-07T02:29:03.540Z,7.70
2022-09-07T02:31:30.189Z,9.23
2022-09-07T02:33:57.130Z,10.65
2022-09-07T02:36:28.362Z,7.85
2022-09-07T02:38:54.816Z,9.57
2022-09-07T02:41:39.533Z,9.05
2022-09-07T02:44:15.570Z,7.63
2022-09-07T02:47:04.009Z,7.40
2022-09-07T02:50:05.789Z,9.20
2022-09-07T02:52:55.171Z,10.15
2022-09-07T02:55:31.616Z,8.60
2022-09-07T02:58:07.699Z,11.77
2022-09-07T03:00:43.116Z,11.13
2022-09-07T03:03:29.677Z,12.77
2022-09-07T03:06:01.710Z,9.75
2022-09-07T03:08:39.824Z,8.23
2022-09-07T03:11:07.389Z,6.80
2022-09-07T03:13:34.480Z,9.27
2022-09-07T03:16:01.039Z,7.28
2022-09-07T03:18:28.437Z,12.30
2022-09-07T03:20:55.502Z,10.60
2022-09-07T03:23:22.389Z,7.60
2022-09-07T03:25:49.344Z,9.10
2022-09-07T03:28:16.316Z,7.70
2022-09-07T03:30:49.698Z,6.72
2022-09-07T03:33:16.856Z,7.78
2022-09-07T03:35:44.730Z,7.50
2022-09-07T03:38:11.699Z,8.05
2022-09-07T03:40:38.173Z,6.60
2022-09-07T03:43:05.254Z,7.10
2022-09-07T03:45:31.731Z,12.30
2022-09-07T03:47:58.174Z,7.82
2022-09-07T03:50:24.613Z,8.43
2022-09-07T03:52:51.081Z,6.47
2022-09-07T03:55:17.588Z,11.02
2022-09-07T03:57:44.055Z,10.88
2022-09-07T04:00:11.378Z,11.15
2022-09-07T04:02:38.100Z,8.20
2022-09-07T04:05:04.991Z,10.88
2022-09-07T04:07:31.452Z,8.35
2022-09-07T04:09:57.921Z,10.73
2022-09-07T04:12:26.054Z,14.02
2022-09-07T04:14:52.503Z,8.80
2022-09-07T04:17:18.959Z,8.82
2022-09-07T04:19:45.414Z,12.20
2022-09-07T04:22:11.903Z,13.77
2022-09-07T04:24:38.366Z,13.45
2022-09-07T04:27:04.811Z,12.60
2022-09-07T04:29:31.314Z,11.95
2022-09-07T04:31:57.742Z,11.48
2022-09-07T04:34:24.227Z,12.63
2022-09-07T04:36:50.669Z,11.75
2022-09-07T04:39:17.167Z,12.32
2022-09-07T04:41:43.650Z,11.45
2022-09-07T04:44:12.621Z,16.40
2022-09-07T04:46:42.805Z,14.07
2022-09-07T04:49:11.067Z,17.83
2022-09-07T04:51:39.093Z,13.73
2022-09-07T04:54:06.269Z,11.98
2022-09-07T04:56:33.017Z,19.88
2022-09-07T04:59:01.356Z,18.77
2022-09-07T05:01:28.098Z,12.68
2022-09-07T05:03:54.661Z,13.27
2022-09-07T05:06:22.466Z,12.43
2022-09-07T05:08:51.449Z,13.73
2022-09-07T05:11:19.520Z,13.70
2022-09-07T05:13:46.298Z,13.23
2022-09-07T05:16:14.090Z,18.90
2022-09-07T05:18:40.767Z,19.35
2022-09-07T05:21:12.300Z,15.77
2022-09-07T05:23:39.153Z,14.02
2022-09-07T05:26:06.348Z,18.05
2022-09-07T05:28:48.324Z,17.35
2022-09-07T05:31:19.248Z,19.30
2022-09-07T05:36:40.988Z,19.55
2022-09-07T05:39:08.597Z,18.83
2022-09-07T05:41:35.290Z,24.77
2022-09-07T05:46:48.856Z,19.58
2022-09-07T05:49:15.298Z,18.80
2022-09-07T05:51:41.740Z,18.05
2022-09-07T05:54:08.325Z,18.23
2022-09-07T05:56:36.146Z,13.98
2022-09-07T05:59:03.714Z,17.20
2022-09-07T06:01:30.503Z,15.13
2022-09-07T06:03:57.449Z,18.40
2022-09-07T06:06:23.988Z,14.75
2022-09-07T06:08:52.503Z,17.38
2022-09-07T06:11:24.487Z,17.13
2022-09-07T06:13:51.958Z,16.05
2022-09-07T06:16:19.965Z,10.20
2022-09-07T06:18:48.792Z,12.60
2022-09-07T06:21:17.890Z,12.38
2022-09-07T06:23:45.732Z,14.52
2022-09-07T06:26:13.284Z,10.30
2022-09-07T06:28:42.042Z,16.85
2022-09-07T06:31:19.854Z,7.72
2022-09-07T06:33:47.783Z,8.65
2022-09-07T06:36:19.485Z,10.45
2022-09-07T06:38:47.101Z,10.60
2022-09-07T06:44:09.508Z,13.98
2022-09-07T06:49:23.681Z,12.45
2022-09-07T06:51:50.240Z,14.35
2022-09-07T06:57:09.027Z,11.85
2022-09-07T06:59:36.682Z,12.57
2022-09-07T07:02:04.550Z,10.50
2022-09-07T07:04:31.105Z,12.30
2022-09-07T07:06:58.365Z,10.77
2022-09-07T07:09:24.840Z,12.70
2022-09-07T07:11:51.277Z,11.43
2022-09-07T07:14:18.267Z,11.90
2022-09-07T07:16:44.934Z,10.40
2022-09-07T07:19:11.535Z,9.13
2022-09-07T07:22:03.484Z,13.95
2022-09-07T07:24:24.628Z,13.77
2022-09-07T07:26:51.254Z,12.18
2022-09-07T07:29:18.921Z,9.70
2022-09-07T07:31:46.941Z,15.85
2022-09-07T07:34:13.529Z,17.05
2022-09-07T07:36:39.959Z,17.35
2022-09-07T07:39:06.700Z,16.30
2022-09-07T07:44:20.714Z,16.33
2022-09-07T07:46:49.000Z,16.63
2022-09-07T07:49:15.999Z,15.63
2022-09-07T07:54:29.267Z,13.60
2022-09-07T07:56:55.708Z,14.65
2022-09-07T07:59:22.113Z,14.43
2022-09-07T08:01:48.608Z,8.25
2022-09-07T08:04:15.801Z,11.20
2022-09-07T08:06:43.026Z,13.27
2022-09-07T08:09:10.967Z,12.20
2022-09-07T08:11:39.685Z,12.70
2022-09-07T08:14:06.777Z,8.68
2022-09-07T08:16:34.117Z,10.93
2022-09-07T08:19:01.632Z,11.63
2022-09-07T08:21:28.245Z,14.20
2022-09-07T08:23:55.336Z,18.23
2022-09-07T08:26:21.775Z,10.63
2022-09-07T08:28:48.483Z,14.00
2022-09-07T08:31:17.120Z,11.98
2022-09-07T08:33:44.010Z,14.73
2022-09-07T08:36:13.337Z,9.02
2022-09-07T08:38:40.153Z,13.75
2022-09-07T08:41:28.354Z,7.15
2022-09-07T08:44:00.354Z,6.22
2022-09-07T08:46:40.833Z,9.15
2022-09-07T08:49:40.469Z,5.05
2022-09-07T08:52:15.702Z,11.15
2022-09-07T08:54:47.004Z,8.02
2022-09-07T08:57:21.049Z,8.30
2022-09-07T09:00:14.112Z,9.40
2022-09-07T09:05:55.067Z,5.60
2022-09-07T09:08:44.610Z,7.15
2022-09-07T09:11:16.165Z,7.45
2022-09-07T09:14:10.486Z,10.85
2022-09-07T09:16:47.381Z,5.95
2022-09-07T09:19:30.244Z,8.32
2022-09-07T09:22:25.644Z,5.35
2022-09-07T09:24:58.914Z,8.77
2022-09-07T09:27:25.382Z,7.40
2022-09-07T09:29:51.843Z,5.20
2022-09-07T09:32:36.016Z,6.28
2022-09-07T09:35:15.471Z,6.00
2022-09-07T09:37:43.288Z,7.05
2022-09-07T09:40:20.864Z,6.38
2022-09-07T09:42:47.951Z,6.50
2022-09-07T09:45:20.799Z,9.45
2022-09-07T09:47:52.709Z,6.28
2022-09-07T09:53:23.977Z,7.82
2022-09-07T09:55:53.403Z,4.65
2022-09-07T10:04:35.145Z,7.68
2022-09-07T10:07:22.126Z,6.28
2022-09-07T10:09:51.750Z,5.93
2022-09-07T10:12:32.166Z,7.40
2022-09-07T10:15:01.361Z,7.63
2022-09-07T10:17:33.675Z,6.13
2022-09-07T10:20:02.250Z,8.30
2022-09-07T10:22:33.222Z,7.88
2022-09-07T10:25:01.301Z,6.57
2022-09-07T10:27:38.554Z,11.07
2022-09-07T10:30:15.826Z,8.13
2022-09-07T10:32:57.734Z,10.13
2022-09-07T10:35:28.485Z,10.85
2022-09-07T10:38:21.052Z,9.98
2022-09-07T10:40:58.839Z,10.02
2022-09-07T10:43:47.255Z,3.67
2022-09-07T10:49:18.716Z,6.45
2022-09-07T10:52:22.979Z,4.75
2022-09-07T10:55:11.983Z,8.77
2022-09-07T10:57:51.854Z,5.10
2022-09-07T11:00:20.481Z,7.43
2022-09-07T11:03:28.122Z,4.47
2022-09-07T11:06:31.430Z,5.07
2022-09-07T11:09:17.592Z,10.02
2022-09-07T11:12:07.262Z,5.63
2022-09-07T11:14:48.276Z,5.22
2022-09-07T11:17:21.722Z,6.32
2022-09-07T11:20:03.226Z,6.47
2022-09-07T11:22:43.401Z,8.25
2022-09-07T11:25:29.443Z,7.25
2022-09-07T11:28:01.673Z,7.07
2022-09-07T11:30:35.808Z,4.70
2022-09-07T11:33:10.993Z,6.57
2022-09-07T11:35:55.186Z,8.73
2022-09-07T11:38:33.780Z,5.88
2022-09-07T11:41:23.513Z,7.50
2022-09-07T11:44:02.267Z,5.55
2022-09-07T11:46:40.550Z,6.40
2022-09-07T11:49:15.745Z,6.25
2022-09-07T11:51:53.735Z,9.55
2022-09-07T11:54:23.437Z,4.65
2022-09-07T11:56:57.765Z,5.30
2022-09-07T12:00:02.469Z,7.90
2022-09-07T12:03:06.385Z,5.18
2022-09-07T12:06:11.882Z,4.45
2022-09-07T12:09:10.842Z,5.30
2022-09-07T12:12:07.130Z,5.78
2022-09-07T12:14:48.940Z,6.95
2022-09-07T12:17:37.814Z,5.13
2022-09-07T12:20:20.650Z,4.65
2022-09-07T12:23:05.502Z,5.13
2022-09-07T12:25:34.129Z,10.52
2022-09-07T12:28:01.248Z,5.10
2022-09-07T12:30:29.080Z,5.78
2022-09-07T12:32:56.930Z,5.60
2022-09-07T12:35:30.033Z,7.47
2022-09-07T12:37:58.372Z,6.35
2022-09-07T12:40:32.066Z,6.35
2022-09-07T12:43:13.615Z,4.40
2022-09-07T12:45:40.034Z,5.20
2022-09-07T12:48:15.485Z,8.05
2022-09-07T12:50:58.772Z,4.80
2022-09-07T12:53:46.850Z,5.00
2022-09-07T12:56:22.374Z,7.95
2022-09-07T12:59:26.138Z,6.78
2022-09-07T13:02:16.375Z,5.97
2022-09-07T13:04:58.297Z,7.18
2022-09-07T13:07:50.910Z,4.83
2022-09-07T13:10:36.006Z,4.85
2022-09-07T13:13:05.228Z,5.82
2022-09-07T13:15:45.698Z,7.90
2022-09-07T13:18:27.430Z,7.22
2022-09-07T13:21:09.192Z,3.55
2022-09-07T13:23:39.993Z,4.77
2022-09-07T13:26:10.674Z,5.00
2022-09-07T13:28:58.078Z,5.43
2022-09-07T13:31:33.572Z,5.95
2022-09-07T13:34:00.525Z,4.75
2022-09-07T13:36:45.291Z,3.83
2022-09-07T13:39:15.795Z,4.32
2022-09-07T13:41:52.173Z,5.60
2022-09-07T13:44:26.598Z,5.30
2022-09-07T13:47:13.366Z,7.15
2022-09-07T13:49:58.076Z,8.75
2022-09-07T13:52:43.894Z,4.43
2022-09-07T13:55:25.171Z,6.50
2022-09-07T13:57:55.133Z,4.13
2022-09-07T14:00:21.625Z,5.57
2022-09-07T14:02:56.519Z,6.57
2022-09-07T14:05:23.740Z,8.00
2022-09-07T14:07:50.162Z,5.82
2022-09-07T14:10:20.738Z,7.63
2022-09-07T14:12:51.487Z,5.97
2022-09-07T14:15:42.288Z,6.68
2022-09-07T14:18:18.634Z,5.90
2022-09-07T14:20:52.816Z,5.97
2022-09-07T14:23:22.952Z,4.55
2022-09-07T14:26:23.108Z,5.60
2022-09-07T14:28:52.426Z,6.88
2022-09-07T14:31:20.822Z,6.50
2022-09-07T14:33:59.341Z,3.97
2022-09-07T14:36:46.843Z,7.22
2022-09-07T14:39:19.547Z,4.90
2022-09-07T14:41:46.727Z,6.28
2022-09-07T14:44:30.801Z,4.68
2022-09-07T14:46:59.994Z,7.93
2022-09-07T14:49:26.667Z,6.22
2022-09-07T14:51:54.573Z,5.63
2022-09-07T14:54:25.630Z,5.00
2022-09-07T14:57:18.315Z,5.25
2022-09-07T14:59:46.981Z,5.82
2022-09-07T15:02:24.002Z,7.25
2022-09-07T15:05:27.131Z,8.30
2022-09-07T15:07:54.981Z,10.70
2022-09-07T15:10:21.430Z,6.55
2022-09-07T15:12:53.011Z,5.13
2022-09-07T15:15:21.765Z,4.70
2022-09-07T15:17:48.907Z,9.20
2022-09-07T15:20:43.007Z,6.57
2022-09-07T15:23:15.270Z,6.57
2022-09-07T15:25:45.367Z,6.32
2022-09-07T15:34:03.107Z,8.80
2022-09-07T15:36:31.958Z,5.25
2022-09-07T15:39:00.530Z,5.30
2022-09-07T15:41:28.503Z,6.25
2022-09-07T15:43:56.779Z,3.78
2022-09-07T15:46:25.106Z,9.10
2022-09-07T15:48:55.712Z,8.32
2022-09-07T15:54:13.117Z,5.93
2022-09-07T15:56:42.323Z,11.05
2022-09-07T15:59:10.069Z,7.15
2022-09-07T16:01:52.526Z,6.28
2022-09-07T16:06:48.236Z,6.28
2022-09-07T16:09:15.538Z,5.97
2022-09-07T16:11:41.999Z,6.85
2022-09-07T16:14:11.689Z,9.57
2022-09-07T16:19:25.511Z,11.45
2022-09-07T16:21:51.955Z,6.88
2022-09-07T16:24:18.649Z,7.65
2022-09-07T16:26:45.111Z,9.30
2022-09-07T16:29:11.719Z,5.82
2022-09-07T16:31:38.439Z,5.85
2022-09-07T16:34:05.454Z,6.03
2022-09-07T16:36:32.065Z,8.00
2022-09-07T16:39:00.533Z,7.50
2022-09-07T16:41:31.907Z,9.45
2022-09-07T16:43:59.078Z,12.90
2022-09-07T16:46:28.391Z,7.53
2022-09-07T16:48:55.240Z,10.10
2022-09-07T16:51:23.066Z,9.18
2022-09-07T16:53:51.479Z,5.38
2022-09-07T16:56:20.373Z,7.38
2022-09-07T16:58:49.718Z,8.68
2022-09-07T17:01:19.261Z,8.95
2022-09-07T17:03:46.548Z,10.27
2022-09-07T17:06:14.901Z,10.65
2022-09-07T17:08:42.386Z,9.57
2022-09-07T17:11:11.564Z,11.07
2022-09-07T17:13:39.638Z,12.23
2022-09-07T17:16:19.946Z,7.50
2022-09-07T17:21:36.453Z,6.18
2022-09-07T17:24:05.098Z,5.57
2022-09-07T17:26:32.157Z,6.70
2022-09-07T17:29:00.769Z,7.28
2022-09-07T17:34:16.616Z,10.43
2022-09-07T17:36:43.125Z,7.97
2022-09-07T17:39:18.929Z,5.68
2022-09-07T17:41:47.656Z,4.70
2022-09-07T17:44:14.253Z,18.42
2022-09-07T17:46:40.876Z,21.65
2022-09-07T17:49:11.158Z,11.80
2022-09-07T17:51:38.010Z,45.33
2022-09-07T17:54:09.997Z,16.25
2022-09-07T17:56:40.054Z,9.07
2022-09-07T18:01:56.524Z,6.13
2022-09-07T18:04:23.481Z,14.18
2022-09-07T18:06:50.430Z,11.18
2022-09-07T18:09:17.345Z,12.85
2022-09-07T18:11:45.978Z,8.77
2022-09-07T18:14:14.726Z,7.82
2022-09-07T18:16:43.385Z,5.22
2022-09-07T18:19:11.082Z,9.07
2022-09-07T18:21:38.022Z,7.30
2022-09-07T18:24:07.714Z,5.85
2022-09-07T18:26:38.350Z,9.32
2022-09-07T18:29:13.150Z,11.82
2022-09-07T18:31:52.286Z,7.13
2022-09-07T18:34:18.785Z,8.63
2022-09-07T18:36:45.216Z,10.45
2022-09-07T18:39:13.152Z,12.40
2022-09-07T18:41:40.875Z,9.23
2022-09-07T18:45:27.335Z,12.07
2022-09-07T18:46:54.391Z,7.50
2022-09-07T18:49:20.885Z,5.70
2022-09-07T18:54:33.800Z,8.52
2022-09-07T18:57:00.350Z,7.28
2022-09-07T18:59:26.858Z,10.77
2022-09-07T19:01:54.111Z,8.95
2022-09-07T19:04:21.167Z,9.82
2022-09-07T19:06:47.955Z,6.07
2022-09-07T19:09:14.445Z,10.55
2022-09-07T19:11:42.180Z,5.15
2022-09-07T19:14:08.852Z,7.32
2022-09-07T19:16:35.824Z,5.20
2022-09-07T19:19:05.510Z,3.67
2022-09-07T19:21:37.373Z,7.90
2022-09-07T19:24:05.077Z,11.23
2022-09-07T19:26:43.194Z,5.97
2022-09-07T19:29:15.686Z,5.47
2022-09-07T19:32:08.565Z,5.95
2022-09-07T19:34:40.829Z,6.20
2022-09-07T19:37:09.326Z,9.60
2022-09-07T19:39:35.952Z,7.68
2022-09-07T19:42:04.393Z,8.50
2022-09-07T19:44:31.008Z,7.57
2022-09-07T19:46:57.532Z,7.63
2022-09-07T19:49:24.057Z,6.07
2022-09-07T19:51:51.903Z,5.10
2022-09-07T19:54:19.180Z,6.20
2022-09-07T19:56:46.030Z,9.30
2022-09-07T19:59:13.204Z,6.95
2022-09-07T20:01:43.709Z,6.13
2022-09-07T20:04:16.006Z,5.97
2022-09-07T20:06:46.308Z,8.38
2022-09-07T20:09:15.905Z,6.18
2022-09-07T20:11:46.568Z,4.88
2022-09-07T20:14:14.651Z,7.30
2022-09-07T20:16:41.763Z,10.02
2022-09-07T20:19:10.371Z,5.65
2022-09-07T20:21:36.935Z,5.72
2022-09-07T20:24:04.255Z,7.78
2022-09-07T20:26:32.236Z,5.68
2022-09-07T20:29:23.341Z,6.47
2022-09-07T20:31:46.613Z,6.43
2022-09-07T20:34:13.249Z,5.28
2022-09-07T20:36:40.039Z,5.63
2022-09-07T20:39:06.553Z,7.25
2022-09-07T20:41:34.205Z,8.70
2022-09-07T20:44:03.542Z,7.43
2022-09-07T20:46:30.868Z,9.00
2022-09-07T20:48:57.810Z,11.75
2022-09-07T20:51:24.368Z,8.55
2022-09-07T20:53:51.552Z,8.95
2022-09-07T20:56:23.182Z,5.88
2022-09-07T20:58:54.862Z,6.00
2022-09-07T21:01:21.832Z,10.27
2022-09-07T21:03:51.349Z,8.10
2022-09-07T21:06:19.151Z,4.82
2022-09-07T21:08:46.798Z,6.88
2022-09-07T21:11:15.140Z,9.85
2022-09-07T21:13:41.875Z,7.15
2022-09-07T21:16:11.679Z,9.40
2022-09-07T21:18:39.297Z,6.43
2022-09-07T21:21:21.883Z,5.40
2022-09-07T21:23:48.966Z,9.63
2022-09-07T21:26:20.855Z,8.77
2022-09-07T21:28:47.340Z,7.80
2022-09-07T21:31:13.791Z,7.03
2022-09-07T21:33:40.239Z,5.25
2022-09-07T21:36:12.308Z,7.72
2022-09-07T21:38:40.476Z,8.48
2022-09-07T21:41:11.668Z,6.57
2022-09-07T21:43:38.459Z,5.97
2022-09-07T21:46:09.992Z,6.72
2022-09-07T21:48:36.797Z,7.80
2022-09-07T21:51:04.336Z,8.13
2022-09-07T21:53:30.991Z,8.07
2022-09-07T21:56:02.545Z,8.50
2022-09-07T21:58:29.822Z,9.05
2022-09-07T22:00:57.037Z,7.25
2022-09-07T22:03:25.124Z,6.78
2022-09-07T22:05:51.635Z,6.85
2022-09-07T22:08:19.029Z,7.78
2022-09-07T22:10:46.506Z,8.85
2022-09-07T22:13:13.060Z,10.68
2022-09-07T22:15:40.916Z,10.02
2022-09-07T22:18:12.695Z,6.20
2022-09-07T22:20:40.074Z,7.85
2022-09-07T22:23:06.510Z,8.38
2022-09-07T22:25:33.435Z,6.47
2022-09-07T22:27:59.952Z,10.07
2022-09-07T22:30:26.764Z,5.72
2022-09-07T22:32:53.282Z,8.93
2022-09-07T22:35:20.654Z,4.60
2022-09-07T22:37:47.272Z,3.80
2022-09-07T22:40:14.765Z,5.25
2022-09-07T22:42:41.847Z,7.07
2022-09-07T22:45:08.733Z,6.50
2022-09-07T22:47:35.151Z,5.85
2022-09-07T22:50:01.664Z,6.28
2022-09-07T22:52:28.184Z,4.25
2022-09-07T22:54:54.598Z,4.53
2022-09-07T22:57:21.066Z,6.05
2022-09-07T22:59:47.455Z,3.45
2022-09-07T23:02:13.887Z,4.10
2022-09-07T23:04:40.388Z,5.25
2022-09-07T23:07:07.700Z,3.88
2022-09-07T23:09:34.443Z,4.05
2022-09-07T23:12:00.946Z,4.00
2022-09-07T23:14:27.576Z,3.70
2022-09-07T23:16:54.030Z,2.30
2022-09-07T23:19:20.865Z,4.22
2022-09-07T23:21:47.797Z,3.05
2022-09-07T23:24:16.736Z,1.70
2022-09-07T23:26:43.262Z,2.88
2022-09-07T23:29:11.688Z,3.28
2022-09-07T23:31:38.341Z,4.47
2022-09-07T23:34:04.948Z,3.22
2022-09-07T23:36:31.494Z,3.08
2022-09-07T23:38:59.468Z,3.67
2022-09-07T23:41:27.258Z,2.30
2022-09-07T23:43:54.827Z,2.78
2022-09-07T23:46:21.601Z,5.28
2022-09-07T23:48:49.021Z,3.42
2022-09-07T23:51:19.954Z,5.63
2022-09-07T23:53:49.579Z,11.52
2022-09-07T23:56:16.061Z,4.78
2022-09-07T23:58:42.564Z,4.47
